Terminal Aerodrome Forecast
Issued by NWS

Home | Current Version | Previous Version | Graphics & Text | Print | Product List | Glossary Off
Versions: 1 2 3 4 5 6 7 8 9 10 11 12 13 14 15 16

729
FTUS43 KOAX 190632 AAA
TAFCDR
TAF AMD
KCDR 190632Z 1907/2006 02015G25KT 4SM -SN OVC035
      TEMPO 1907/1910 1SM -SN BR OVC016
     FM191000 03014KT 2SM -SN BR OVC010
     FM191300 05012KT 1/2SM SN BLSN OVC007=

USA.gov is the U.S. government's official web portal to all federal, state and local government web resources and services.